createdAt,value
2018-01-24T00:01:59.195Z,77.10
2018-01-24T00:04:28.849Z,77.20
2018-01-24T00:06:58.423Z,77.50
2018-01-24T00:09:28.049Z,77.60
2018-01-24T00:11:58.593Z,77.20
2018-01-24T00:14:28.057Z,77.20
2018-01-24T00:16:58.186Z,77.30
2018-01-24T00:19:27.963Z,77.30
2018-01-24T00:21:57.501Z,77.30
2018-01-24T00:24:26.899Z,77.30
2018-01-24T00:26:54.467Z,76.90
2018-01-24T00:29:22.045Z,77.00
2018-01-24T00:31:50.469Z,77.40
2018-01-24T00:34:20.121Z,77.40
2018-01-24T00:36:47.726Z,77.30
2018-01-24T00:39:15.301Z,77.00
2018-01-24T00:41:42.909Z,77.20
2018-01-24T00:44:10.526Z,77.30
2018-01-24T00:46:38.130Z,77.80
2018-01-24T00:49:06.462Z,78.40
2018-01-24T00:51:34.049Z,78.40
2018-01-24T00:54:01.663Z,78.60
2018-01-24T00:56:29.218Z,78.30
2018-01-24T00:58:56.805Z,78.90
2018-01-24T01:01:24.402Z,78.60
2018-01-24T01:03:51.976Z,78.20
2018-01-24T01:06:20.338Z,78.20
2018-01-24T01:08:47.905Z,78.20
2018-01-24T01:11:15.526Z,78.20
2018-01-24T01:13:43.154Z,79.10
2018-01-24T01:16:10.772Z,78.30
2018-01-24T01:18:38.372Z,78.20
2018-01-24T01:21:06.752Z,77.80
2018-01-24T01:23:34.334Z,78.50
2018-01-24T01:26:01.890Z,77.60
2018-01-24T01:28:29.497Z,77.80
2018-01-24T01:30:57.056Z,77.60
2018-01-24T01:33:24.670Z,77.60
2018-01-24T01:35:52.273Z,77.70
2018-01-24T01:38:19.869Z,77.70
2018-01-24T01:40:48.241Z,77.70
2018-01-24T01:43:15.790Z,77.70
2018-01-24T01:45:43.407Z,77.70
2018-01-24T01:48:10.993Z,77.00
2018-01-24T01:50:38.571Z,77.20
2018-01-24T01:53:06.157Z,76.60
2018-01-24T01:55:33.777Z,76.70
2018-01-24T01:58:01.333Z,76.80
2018-01-24T02:00:28.914Z,76.70
2018-01-24T02:02:56.545Z,77.00
2018-01-24T02:05:24.100Z,76.90
2018-01-24T02:07:51.711Z,76.90
2018-01-24T02:10:19.285Z,77.30
2018-01-24T02:12:47.637Z,77.50
2018-01-24T02:15:15.225Z,77.60
2018-01-24T02:17:43.554Z,77.40
2018-01-24T02:20:11.191Z,77.40
2018-01-24T02:22:38.758Z,77.90
2018-01-24T02:25:06.363Z,77.10
2018-01-24T02:27:33.953Z,76.90
2018-01-24T02:30:02.298Z,77.20
2018-01-24T02:32:29.898Z,77.20
2018-01-24T02:34:58.231Z,77.50
2018-01-24T02:37:25.844Z,77.40
2018-01-24T02:39:53.409Z,77.30
2018-01-24T02:42:21.003Z,77.30
2018-01-24T02:44:48.570Z,77.60
2018-01-24T02:47:16.177Z,77.80
2018-01-24T02:49:43.745Z,77.80
2018-01-24T02:52:11.339Z,77.80
2018-01-24T02:54:38.893Z,78.10
2018-01-24T02:57:06.506Z,78.20
2018-01-24T02:59:34.842Z,78.40
2018-01-24T03:02:02.414Z,78.30
2018-01-24T03:04:30.023Z,78.30
2018-01-24T03:06:58.354Z,78.30
2018-01-24T03:09:25.979Z,78.30
2018-01-24T03:11:53.559Z,78.60
2018-01-24T03:14:21.134Z,78.70
2018-01-24T03:16:48.740Z,78.80
2018-01-24T03:19:17.102Z,78.80
2018-01-24T03:21:44.705Z,78.80
2018-01-24T03:24:12.274Z,78.90
2018-01-24T03:26:39.886Z,78.90
2018-01-24T03:29:07.573Z,78.80
2018-01-24T03:31:35.157Z,79.20
2018-01-24T03:34:02.723Z,79.00
2018-01-24T03:36:30.305Z,79.10
2018-01-24T03:38:57.854Z,79.30
2018-01-24T03:41:25.436Z,79.50
2018-01-24T03:43:53.029Z,79.60
2018-01-24T03:46:20.608Z,79.80
2018-01-24T03:48:48.236Z,79.60
2018-01-24T03:51:15.788Z,79.70
2018-01-24T03:53:43.359Z,79.80
2018-01-24T03:56:11.740Z,80.10
2018-01-24T03:58:40.123Z,80.00
2018-01-24T04:01:08.505Z,80.00
2018-01-24T04:03:36.837Z,80.30
2018-01-24T04:06:04.442Z,80.20
2018-01-24T04:08:32.789Z,81.10
2018-01-24T04:11:00.436Z,80.40
2018-01-24T04:13:28.014Z,80.70
2018-01-24T04:15:55.628Z,80.70
2018-01-24T04:18:23.218Z,81.00
2018-01-24T04:20:50.808Z,81.50
2018-01-24T04:23:18.382Z,81.00
2018-01-24T04:25:46.041Z,81.30
2018-01-24T04:28:14.433Z,81.60
2018-01-24T04:30:42.002Z,81.50
2018-01-24T04:33:10.339Z,81.40
2018-01-24T04:35:37.938Z,81.30
2018-01-24T04:38:06.267Z,81.70
2018-01-24T04:40:33.851Z,81.70
2018-01-24T04:43:01.403Z,81.60
2018-01-24T04:45:28.997Z,81.60
2018-01-24T04:47:57.322Z,81.80
2018-01-24T04:50:24.923Z,81.80
2018-01-24T04:52:53.260Z,82.30
2018-01-24T04:55:20.872Z,82.20
2018-01-24T04:57:49.279Z,82.20
2018-01-24T05:00:16.855Z,82.10
2018-01-24T05:02:44.453Z,82.90
2018-01-24T05:05:12.013Z,82.50
2018-01-24T05:07:39.609Z,82.30
2018-01-24T05:10:07.968Z,82.10
2018-01-24T05:12:36.310Z,82.00
2018-01-24T05:15:03.909Z,82.00
2018-01-24T05:17:32.248Z,82.50
2018-01-24T05:19:59.847Z,82.50
2018-01-24T05:22:28.209Z,82.40
2018-01-24T05:24:55.820Z,82.40
2018-01-24T05:27:23.413Z,82.60
2018-01-24T05:29:51.074Z,82.70
2018-01-24T05:32:18.653Z,83.00
2018-01-24T05:34:46.299Z,83.00
2018-01-24T05:37:13.865Z,83.00
2018-01-24T05:39:41.431Z,82.90
2018-01-24T05:42:09.037Z,82.90
2018-01-24T05:44:36.593Z,83.20
2018-01-24T05:47:04.954Z,83.40
2018-01-24T05:49:32.515Z,83.50
2018-01-24T05:52:00.944Z,83.60
2018-01-24T05:54:28.506Z,83.60
2018-01-24T05:56:56.082Z,83.90
2018-01-24T05:59:23.677Z,83.90
2018-01-24T06:01:52.077Z,84.10
2018-01-24T06:04:19.661Z,84.10
2018-01-24T06:06:47.248Z,84.20
2018-01-24T06:09:14.882Z,84.00
2018-01-24T06:11:42.503Z,84.10
2018-01-24T06:14:10.859Z,84.10
2018-01-24T06:16:39.249Z,84.20
2018-01-24T06:19:06.875Z,84.10
2018-01-24T06:21:34.435Z,84.10
2018-01-24T06:24:02.036Z,84.30
2018-01-24T06:26:30.603Z,84.40
2018-01-24T06:28:58.158Z,84.40
2018-01-24T06:31:25.761Z,84.40
2018-01-24T06:33:53.320Z,84.40
2018-01-24T06:36:21.675Z,85.40
2018-01-24T06:38:49.262Z,84.70
2018-01-24T06:41:17.640Z,84.70
2018-01-24T06:43:46.047Z,85.10
2018-01-24T06:46:13.606Z,85.10
2018-01-24T06:48:41.203Z,85.10
2018-01-24T06:51:08.762Z,85.10
2018-01-24T06:53:36.374Z,85.20
2018-01-24T06:56:03.928Z,86.00
2018-01-24T06:58:31.538Z,85.40
2018-01-24T07:00:59.143Z,85.60
2018-01-24T07:03:27.508Z,85.70
2018-01-24T07:05:55.119Z,85.70
2018-01-24T07:08:22.715Z,85.90
2018-01-24T07:10:50.313Z,86.00
2018-01-24T07:13:30.440Z,85.90
2018-01-24T07:15:59.133Z,85.90
2018-01-24T07:18:26.771Z,86.10
2018-01-24T07:20:54.417Z,86.90
2018-01-24T07:23:22.250Z,86.50
2018-01-24T07:25:50.010Z,86.70
2018-01-24T07:28:18.080Z,86.80
2018-01-24T07:30:45.813Z,87.10
2018-01-24T07:33:13.576Z,87.00
2018-01-24T07:35:41.521Z,86.90
2018-01-24T07:38:09.253Z,87.00
2018-01-24T07:40:37.142Z,86.90
2018-01-24T07:43:05.602Z,86.70
2018-01-24T07:45:34.423Z,86.60
2018-01-24T07:48:02.124Z,86.50
2018-01-24T07:50:29.756Z,86.60
2018-01-24T07:52:58.932Z,86.70
2018-01-24T07:55:27.161Z,86.70
2018-01-24T07:57:56.314Z,86.70
2018-01-24T08:00:25.411Z,86.60
2018-01-24T08:03:00.770Z,87.20
2018-01-24T08:05:37.355Z,86.00
2018-01-24T08:08:28.172Z,86.00
2018-01-24T08:10:56.124Z,86.00
2018-01-24T08:13:24.178Z,86.00
2018-01-24T08:15:53.624Z,86.00
2018-01-24T08:18:21.741Z,85.80
2018-01-24T08:20:49.471Z,85.30
2018-01-24T08:23:17.272Z,85.40
2018-01-24T08:25:44.858Z,85.20
2018-01-24T08:28:12.426Z,85.10
2018-01-24T08:30:41.633Z,85.00
2018-01-24T08:33:09.425Z,84.70
2018-01-24T08:35:37.803Z,83.70
2018-01-24T08:38:05.501Z,83.50
2018-01-24T08:40:34.610Z,83.30
2018-01-24T08:43:02.319Z,83.30
2018-01-24T08:45:30.430Z,83.20
2018-01-24T08:47:59.052Z,83.10
2018-01-24T08:50:26.926Z,83.40
2018-01-24T08:52:54.996Z,83.80
2018-01-24T08:55:23.369Z,82.40
2018-01-24T08:57:51.759Z,82.30
2018-01-24T09:00:37.002Z,82.10
2018-01-24T09:03:22.276Z,82.20
2018-01-24T09:06:07.652Z,82.30
2018-01-24T09:08:52.973Z,82.60
2018-01-24T09:11:38.976Z,81.60
2018-01-24T09:14:25.023Z,81.40
2018-01-24T09:17:10.167Z,81.40
2018-01-24T09:19:55.442Z,79.30
2018-01-24T09:22:45.623Z,76.40
2018-01-24T09:25:14.806Z,74.10
2018-01-24T09:27:44.039Z,73.10
2018-01-24T09:30:12.204Z,73.10
2018-01-24T09:32:39.887Z,73.30
2018-01-24T09:35:07.596Z,74.10
2018-01-24T09:37:35.222Z,75.20
2018-01-24T09:40:02.929Z,75.60
2018-01-24T09:42:30.567Z,76.00
2018-01-24T09:44:58.973Z,76.80
2018-01-24T09:47:26.540Z,76.70
2018-01-24T09:49:54.940Z,77.10
2018-01-24T09:52:22.577Z,77.10
2018-01-24T09:54:50.256Z,77.20
2018-01-24T09:57:18.249Z,77.00
2018-01-24T09:59:52.741Z,77.00
2018-01-24T10:02:21.897Z,76.70
2018-01-24T10:04:49.460Z,76.80
2018-01-24T10:07:17.120Z,76.80
2018-01-24T10:09:44.917Z,76.50
2018-01-24T10:12:13.061Z,76.90
2018-01-24T10:14:41.369Z,77.10
2018-01-24T10:17:09.395Z,76.30
2018-01-24T10:19:37.145Z,77.10
2018-01-24T10:22:05.804Z,76.70
2018-01-24T10:24:33.529Z,76.10
2018-01-24T10:27:01.154Z,75.70
2018-01-24T10:29:28.754Z,75.70
2018-01-24T10:31:56.369Z,75.90
2018-01-24T10:34:24.142Z,74.90
2018-01-24T10:36:51.832Z,74.60
2018-01-24T10:39:19.679Z,75.00
2018-01-24T10:41:47.401Z,75.10
2018-01-24T10:44:16.199Z,74.20
2018-01-24T10:46:43.990Z,74.20
2018-01-24T10:49:11.675Z,73.60
2018-01-24T10:51:39.551Z,71.50
2018-01-24T10:54:07.858Z,70.10
2018-01-24T10:56:35.602Z,70.20
2018-01-24T10:59:04.064Z,69.70
2018-01-24T11:01:31.710Z,68.90
2018-01-24T11:03:59.313Z,68.40
2018-01-24T11:06:26.896Z,68.80
2018-01-24T11:08:54.559Z,68.90
2018-01-24T11:11:22.957Z,68.70
2018-01-24T11:13:50.594Z,68.70
2018-01-24T11:16:18.221Z,68.20
2018-01-24T11:18:46.687Z,68.00
2018-01-24T11:21:14.341Z,68.00
2018-01-24T11:23:41.938Z,68.10
2018-01-24T11:26:10.340Z,66.70
2018-01-24T11:28:37.968Z,66.60
2018-01-24T11:31:05.593Z,66.50
2018-01-24T11:33:33.315Z,65.00
2018-01-24T11:36:01.032Z,63.80
2018-01-24T11:38:28.844Z,65.20
2018-01-24T11:40:57.261Z,64.30
2018-01-24T11:43:25.666Z,64.00
2018-01-24T11:45:53.248Z,64.00
2018-01-24T11:48:21.005Z,63.50
2018-01-24T11:50:48.578Z,60.70
2018-01-24T11:53:16.285Z,59.50
2018-01-24T11:56:15.021Z,58.00
2018-01-24T11:58:44.122Z,57.90
2018-01-24T12:01:12.021Z,55.50
2018-01-24T12:03:39.640Z,53.10
2018-01-24T12:06:07.292Z,52.20
2018-01-24T12:08:38.813Z,53.40
2018-01-24T12:11:07.188Z,53.40
2018-01-24T12:13:35.586Z,54.40
2018-01-24T12:16:08.709Z,54.40
2018-01-24T12:18:41.054Z,53.20
2018-01-24T12:21:13.192Z,53.00
2018-01-24T12:23:41.804Z,50.40
2018-01-24T12:26:10.550Z,47.70
2018-01-24T12:28:47.594Z,47.60
2018-01-24T12:31:16.432Z,47.00
2018-01-24T12:33:45.369Z,46.50
2018-01-24T12:36:13.030Z,46.40
2018-01-24T12:38:48.802Z,46.90
2018-01-24T12:41:18.997Z,45.40
2018-01-24T12:43:46.668Z,45.70
2018-01-24T12:46:14.320Z,47.20
2018-01-24T12:48:41.982Z,49.00
2018-01-24T12:51:09.559Z,49.50
2018-01-24T12:53:37.173Z,50.60
2018-01-24T12:56:04.784Z,51.10
2018-01-24T12:58:32.430Z,52.00
2018-01-24T13:01:00.036Z,51.00
2018-01-24T13:03:27.632Z,51.40
2018-01-24T13:05:55.270Z,52.60
2018-01-24T13:08:22.871Z,52.50
2018-01-24T13:10:50.467Z,51.60
2018-01-24T13:13:18.118Z,51.70
2018-01-24T13:15:46.604Z,53.20
2018-01-24T13:18:14.515Z,53.10
2018-01-24T13:20:42.962Z,52.50
2018-01-24T13:23:10.590Z,53.70
2018-01-24T13:25:39.086Z,54.20
2018-01-24T13:28:06.727Z,54.10
2018-01-24T13:30:35.050Z,54.90
2018-01-24T13:33:02.610Z,54.90
2018-01-24T13:35:30.354Z,53.80
2018-01-24T13:37:58.323Z,53.10
2018-01-24T13:40:26.168Z,54.20
2018-01-24T13:42:53.806Z,54.60
2018-01-24T13:45:21.451Z,53.20
2018-01-24T13:47:49.098Z,53.20
2018-01-24T13:50:16.701Z,52.60
2018-01-24T13:52:44.415Z,53.80
2018-01-24T13:55:12.470Z,54.90
2018-01-24T13:57:40.073Z,54.90
2018-01-24T14:00:07.731Z,55.90
2018-01-24T14:02:35.344Z,57.20
2018-01-24T14:05:02.928Z,58.20
2018-01-24T14:07:30.569Z,58.30
2018-01-24T14:09:58.139Z,59.20
2018-01-24T14:12:25.817Z,59.70
2018-01-24T14:14:53.389Z,60.20
2018-01-24T14:17:21.069Z,59.60
2018-01-24T14:19:48.678Z,59.20
2018-01-24T14:22:16.292Z,59.00
2018-01-24T14:24:43.904Z,59.40
2018-01-24T14:27:11.490Z,60.70
2018-01-24T14:29:39.145Z,61.10
2018-01-24T14:32:07.627Z,63.00
2018-01-24T14:34:35.317Z,62.90
2018-01-24T14:37:03.055Z,62.80
2018-01-24T14:39:30.670Z,62.80
2018-01-24T14:41:58.253Z,63.10
2018-01-24T14:44:25.965Z,63.80
2018-01-24T14:46:53.555Z,64.60
2018-01-24T14:49:21.184Z,64.80
2018-01-24T14:51:48.914Z,65.20
2018-01-24T14:54:16.522Z,65.60
2018-01-24T14:56:44.159Z,66.40
2018-01-24T14:59:11.791Z,67.00
2018-01-24T15:01:39.401Z,66.50
2018-01-24T15:04:07.053Z,66.80
2018-01-24T15:06:34.647Z,67.00
2018-01-24T15:09:02.246Z,67.40
2018-01-24T15:11:29.856Z,66.70
2018-01-24T15:13:57.484Z,67.10
2018-01-24T15:16:25.151Z,68.00
2018-01-24T15:18:52.730Z,68.30
2018-01-24T15:21:20.357Z,68.90
2018-01-24T15:23:47.933Z,68.70
2018-01-24T15:26:15.965Z,68.90
2018-01-24T15:28:44.393Z,69.30
2018-01-24T15:31:11.983Z,69.30
2018-01-24T15:33:39.859Z,69.80
2018-01-24T15:36:07.490Z,69.70
2018-01-24T15:38:35.899Z,70.40
2018-01-24T15:41:03.562Z,70.20
2018-01-24T15:43:31.184Z,70.20
2018-01-24T15:45:58.810Z,70.50
2018-01-24T15:48:26.445Z,71.20
2018-01-24T15:50:54.070Z,71.20
2018-01-24T15:53:21.682Z,71.80
2018-01-24T15:55:50.060Z,73.00
2018-01-24T15:58:17.724Z,73.00
2018-01-24T16:00:46.078Z,74.20
2018-01-24T16:03:13.720Z,74.10
2018-01-24T16:05:41.747Z,74.50
2018-01-24T16:08:09.569Z,73.40
2018-01-24T16:10:38.435Z,73.50
2018-01-24T16:13:05.997Z,74.30
2018-01-24T16:15:33.702Z,73.60
2018-01-24T16:18:01.306Z,74.30
2018-01-24T16:20:28.924Z,74.60
2018-01-24T16:22:57.070Z,73.70
2018-01-24T16:25:24.640Z,73.70
2018-01-24T16:27:52.254Z,73.50
2018-01-24T16:30:20.846Z,72.80
2018-01-24T16:32:49.376Z,72.60
2018-01-24T16:35:17.029Z,72.60
2018-01-24T16:37:44.649Z,72.70
2018-01-24T16:40:12.373Z,71.80
2018-01-24T16:42:39.957Z,71.80
2018-01-24T16:45:08.358Z,71.60
2018-01-24T16:47:36.059Z,71.60
2018-01-24T16:50:03.701Z,71.00
2018-01-24T16:52:32.030Z,71.10
2018-01-24T16:54:59.650Z,71.10
2018-01-24T16:57:27.260Z,71.60
2018-01-24T16:59:54.889Z,71.10
2018-01-24T17:02:27.420Z,71.50
2018-01-24T17:04:55.041Z,71.70
2018-01-24T17:07:22.649Z,72.70
2018-01-24T17:09:50.256Z,72.70
2018-01-24T17:12:20.960Z,73.30
2018-01-24T17:14:51.332Z,73.40
2018-01-24T17:17:21.766Z,71.20
2018-01-24T17:19:53.679Z,71.30
2018-01-24T17:22:23.336Z,71.30
2018-01-24T17:24:53.383Z,71.60
2018-01-24T17:27:22.929Z,71.30
2018-01-24T17:29:53.717Z,70.50
2018-01-24T17:32:28.099Z,69.30
2018-01-24T17:34:57.732Z,69.30
2018-01-24T17:37:29.362Z,68.60
2018-01-24T17:40:01.406Z,68.30
2018-01-24T17:42:31.796Z,68.30
2018-01-24T17:45:02.236Z,68.60
2018-01-24T17:47:32.786Z,68.50
2018-01-24T17:50:03.480Z,68.40
2018-01-24T17:52:34.058Z,68.30
2018-01-24T17:55:04.147Z,68.10
2018-01-24T17:57:34.135Z,67.50
2018-01-24T18:00:04.765Z,67.90
2018-01-24T18:02:35.008Z,67.20
2018-01-24T18:05:04.821Z,67.20
2018-01-24T18:07:34.427Z,66.70
2018-01-24T18:10:04.982Z,65.70
2018-01-24T18:12:34.677Z,65.60
2018-01-24T18:15:05.286Z,65.60
2018-01-24T18:17:36.910Z,65.60
2018-01-24T18:20:06.013Z,65.50
2018-01-24T18:22:35.896Z,65.20
2018-01-24T18:25:06.434Z,65.60
2018-01-24T18:27:36.271Z,65.20
2018-01-24T18:30:05.962Z,64.50
2018-01-24T18:32:35.346Z,64.60
2018-01-24T18:35:05.651Z,64.20
2018-01-24T18:37:35.492Z,63.80
2018-01-24T18:40:04.869Z,63.80
2018-01-24T18:42:33.496Z,63.80
2018-01-24T18:45:01.914Z,63.20
2018-01-24T18:47:31.518Z,62.90
2018-01-24T18:50:01.323Z,63.40
2018-01-24T18:52:30.278Z,62.70
2018-01-24T18:55:00.089Z,62.80
2018-01-24T18:57:30.595Z,62.70
2018-01-24T19:00:03.915Z,62.70
2018-01-24T19:02:32.990Z,62.90
2018-01-24T19:05:02.805Z,62.80
2018-01-24T19:07:33.232Z,63.30
2018-01-24T19:10:02.859Z,63.30
2018-01-24T19:12:32.619Z,63.50
2018-01-24T19:15:02.239Z,63.70
2018-01-24T19:17:32.767Z,64.10
2018-01-24T19:20:03.102Z,64.50
2018-01-24T19:22:32.972Z,64.50
2018-01-24T19:25:02.650Z,64.40
2018-01-24T19:27:32.525Z,64.60
2018-01-24T19:30:02.407Z,64.70
2018-01-24T19:32:31.957Z,64.70
2018-01-24T19:35:02.497Z,64.30
2018-01-24T19:37:32.189Z,64.30
2018-01-24T19:40:02.375Z,63.50
2018-01-24T19:42:31.966Z,63.40
2018-01-24T19:45:01.641Z,63.40
2018-01-24T19:47:32.358Z,63.10
2018-01-24T19:50:01.969Z,63.20
2018-01-24T19:52:32.710Z,63.30
2018-01-24T19:55:02.443Z,63.30
2018-01-24T19:57:32.239Z,63.50
2018-01-24T20:00:02.518Z,63.70
2018-01-24T20:02:32.373Z,63.70
2018-01-24T20:05:02.598Z,63.70
2018-01-24T20:07:33.114Z,63.50
2018-01-24T20:10:03.271Z,63.60
2018-01-24T20:12:33.070Z,63.60
2018-01-24T20:15:02.444Z,63.30
2018-01-24T20:17:32.275Z,63.40
2018-01-24T20:20:02.577Z,63.60
2018-01-24T20:22:32.402Z,63.90
2018-01-24T20:25:02.767Z,63.80
2018-01-24T20:27:32.797Z,63.80
2018-01-24T20:30:02.433Z,64.00
2018-01-24T20:32:33.050Z,64.10
2018-01-24T20:35:02.283Z,64.30
2018-01-24T20:37:32.069Z,64.00
2018-01-24T20:40:01.669Z,64.10
2018-01-24T20:42:31.242Z,64.10
2018-01-24T20:45:01.736Z,64.10
2018-01-24T20:47:31.092Z,64.10
2018-01-24T20:50:00.588Z,63.80
2018-01-24T20:52:29.992Z,64.10
2018-01-24T20:54:59.342Z,63.80
2018-01-24T20:57:28.987Z,63.90
2018-01-24T20:59:59.221Z,64.10
2018-01-24T21:02:28.953Z,64.10
2018-01-24T21:04:58.618Z,64.20
2018-01-24T21:07:28.740Z,64.60
2018-01-24T21:09:59.195Z,64.40
2018-01-24T21:12:28.306Z,64.40
2018-01-24T21:14:56.681Z,64.40
2018-01-24T21:17:24.280Z,64.40
2018-01-24T21:19:51.886Z,64.40
2018-01-24T21:22:21.092Z,64.50
2018-01-24T21:24:50.410Z,64.30
2018-01-24T21:27:19.974Z,64.60
2018-01-24T21:30:00.725Z,64.30
2018-01-24T21:32:41.214Z,64.50
2018-01-24T21:35:33.044Z,64.70
2018-01-24T21:38:02.277Z,64.90
2018-01-24T21:40:31.658Z,64.80
2018-01-24T21:43:01.434Z,64.40
2018-01-24T21:45:31.031Z,64.60
2018-01-24T21:48:00.344Z,65.20
2018-01-24T21:50:29.711Z,65.00
2018-01-24T21:52:59.994Z,65.60
2018-01-24T21:55:30.167Z,65.20
2018-01-24T21:57:59.457Z,65.20
2018-01-24T22:00:28.988Z,65.70
2018-01-24T22:02:58.596Z,66.40
2018-01-24T22:05:28.175Z,67.60
2018-01-24T22:07:57.767Z,68.30
2018-01-24T22:10:25.332Z,68.70
2018-01-24T22:12:52.951Z,69.10
2018-01-24T22:15:20.549Z,69.10
2018-01-24T22:17:48.194Z,69.80
2018-01-24T22:20:16.570Z,69.20
2018-01-24T22:22:44.172Z,69.10
2018-01-24T22:25:11.781Z,69.40
2018-01-24T22:27:40.161Z,69.20
2018-01-24T22:30:08.546Z,69.70
2018-01-24T22:32:36.877Z,69.50
2018-01-24T22:35:04.465Z,69.50
2018-01-24T22:37:32.062Z,70.10
2018-01-24T22:39:59.661Z,70.30
2018-01-24T22:42:27.289Z,70.70
2018-01-24T22:44:54.870Z,70.80
2018-01-24T22:47:22.438Z,70.70
2018-01-24T22:49:50.070Z,70.70
2018-01-24T22:52:17.685Z,71.10
2018-01-24T22:54:45.289Z,71.30
2018-01-24T22:57:12.875Z,71.50
2018-01-24T22:59:40.453Z,71.80
2018-01-24T23:02:08.054Z,71.80
2018-01-24T23:04:36.460Z,73.00
2018-01-24T23:07:04.052Z,73.00
2018-01-24T23:09:31.616Z,73.10
2018-01-24T23:11:59.232Z,73.80
2018-01-24T23:14:27.553Z,74.20
2018-01-24T23:16:55.245Z,74.30
2018-01-24T23:19:22.823Z,74.30
2018-01-24T23:21:50.390Z,74.30
2018-01-24T23:24:17.999Z,74.20
2018-01-24T23:26:45.570Z,74.80
2018-01-24T23:29:13.131Z,74.10
2018-01-24T23:31:40.727Z,74.20
2018-01-24T23:34:09.117Z,74.30
2018-01-24T23:36:36.732Z,74.30
2018-01-24T23:39:04.286Z,74.90
2018-01-24T23:41:31.899Z,74.90
2018-01-24T23:44:00.217Z,75.90
2018-01-24T23:46:27.833Z,75.90
2018-01-24T23:48:56.157Z,76.10
2018-01-24T23:51:23.717Z,76.10
2018-01-24T23:53:51.322Z,76.50
2018-01-24T23:56:18.892Z,76.10
2018-01-24T23:58:47.248Z,76.50
